sensor_id;sensor_type;location;lat;lon;timestamp;P1;durP1;ratioP1;P2;durP2;ratioP2
73321;SDS011;61549;37.044;22.128;2023-03-09T00:01:39;4.70;;;2.50;;
73321;SDS011;61549;37.044;22.128;2023-03-09T00:04:05;4.10;;;2.38;;
73321;SDS011;61549;37.044;22.128;2023-03-09T00:06:32;4.65;;;2.60;;
73321;SDS011;61549;37.044;22.128;2023-03-09T00:09:04;3.78;;;2.38;;
73321;SDS011;61549;37.044;22.128;2023-03-09T00:11:30;3.78;;;2.45;;
73321;SDS011;61549;37.044;22.128;2023-03-09T00:13:56;4.68;;;2.60;;
73321;SDS011;61549;37.044;22.128;2023-03-09T00:16:24;4.38;;;2.50;;
73321;SDS011;61549;37.044;22.128;2023-03-09T00:18:52;3.53;;;2.45;;
73321;SDS011;61549;37.044;22.128;2023-03-09T00:21:19;4.80;;;2.30;;
73321;SDS011;61549;37.044;22.128;2023-03-09T00:24:05;3.60;;;2.30;;
73321;SDS011;61549;37.044;22.128;2023-03-09T00:26:34;3.97;;;2.75;;
73321;SDS011;61549;37.044;22.128;2023-03-09T00:29:02;6.43;;;3.47;;
73321;SDS011;61549;37.044;22.128;2023-03-09T00:31:29;3.30;;;2.90;;
73321;SDS011;61549;37.044;22.128;2023-03-09T00:36:34;7.07;;;2.60;;
73321;SDS011;61549;37.044;22.128;2023-03-09T00:39:00;4.22;;;2.45;;
73321;SDS011;61549;37.044;22.128;2023-03-09T00:41:27;4.00;;;2.30;;
73321;SDS011;61549;37.044;22.128;2023-03-09T00:43:55;3.28;;;2.38;;
73321;SDS011;61549;37.044;22.128;2023-03-09T00:46:25;6.70;;;2.53;;
73321;SDS011;61549;37.044;22.128;2023-03-09T00:48:51;4.53;;;2.50;;
73321;SDS011;61549;37.044;22.128;2023-03-09T00:51:17;4.53;;;2.72;;
73321;SDS011;61549;37.044;22.128;2023-03-09T00:53:44;6.47;;;3.47;;
73321;SDS011;61549;37.044;22.128;2023-03-09T00:56:18;4.20;;;2.63;;
73321;SDS011;61549;37.044;22.128;2023-03-09T00:58:45;4.70;;;2.70;;
73321;SDS011;61549;37.044;22.128;2023-03-09T01:01:13;4.78;;;3.35;;
73321;SDS011;61549;37.044;22.128;2023-03-09T01:03:40;5.60;;;3.20;;
73321;SDS011;61549;37.044;22.128;2023-03-09T01:06:07;4.82;;;3.45;;
73321;SDS011;61549;37.044;22.128;2023-03-09T01:08:33;8.07;;;4.80;;
73321;SDS011;61549;37.044;22.128;2023-03-09T01:11:04;6.65;;;5.15;;
73321;SDS011;61549;37.044;22.128;2023-03-09T01:13:31;8.88;;;5.30;;
73321;SDS011;61549;37.044;22.128;2023-03-09T01:15:57;10.10;;;5.30;;
73321;SDS011;61549;37.044;22.128;2023-03-09T01:18:32;7.55;;;5.50;;
73321;SDS011;61549;37.044;22.128;2023-03-09T01:20:58;8.55;;;6.20;;
73321;SDS011;61549;37.044;22.128;2023-03-09T01:23:25;9.27;;;5.70;;
73321;SDS011;61549;37.044;22.128;2023-03-09T01:25:51;11.82;;;6.28;;
73321;SDS011;61549;37.044;22.128;2023-03-09T01:28:17;10.27;;;5.75;;
73321;SDS011;61549;37.044;22.128;2023-03-09T01:30:49;10.95;;;6.07;;
73321;SDS011;61549;37.044;22.128;2023-03-09T01:33:14;10.23;;;6.20;;
73321;SDS011;61549;37.044;22.128;2023-03-09T01:35:40;8.45;;;5.43;;
73321;SDS011;61549;37.044;22.128;2023-03-09T01:38:06;7.78;;;5.13;;
73321;SDS011;61549;37.044;22.128;2023-03-09T01:40:33;7.07;;;5.25;;
73321;SDS011;61549;37.044;22.128;2023-03-09T01:43:00;5.65;;;4.20;;
73321;SDS011;61549;37.044;22.128;2023-03-09T01:48:12;5.35;;;3.53;;
73321;SDS011;61549;37.044;22.128;2023-03-09T01:50:40;4.22;;;3.15;;
73321;SDS011;61549;37.044;22.128;2023-03-09T01:53:10;5.30;;;2.80;;
73321;SDS011;61549;37.044;22.128;2023-03-09T01:55:39;4.68;;;2.90;;
73321;SDS011;61549;37.044;22.128;2023-03-09T01:58:12;5.35;;;2.60;;
73321;SDS011;61549;37.044;22.128;2023-03-09T02:00:51;5.32;;;3.00;;
73321;SDS011;61549;37.044;22.128;2023-03-09T02:03:29;4.85;;;3.10;;
73321;SDS011;61549;37.044;22.128;2023-03-09T02:08:30;6.53;;;3.70;;
73321;SDS011;61549;37.044;22.128;2023-03-09T02:10:58;5.93;;;3.78;;
73321;SDS011;61549;37.044;22.128;2023-03-09T02:13:29;5.38;;;3.65;;
73321;SDS011;61549;37.044;22.128;2023-03-09T02:15:58;4.95;;;3.78;;
73321;SDS011;61549;37.044;22.128;2023-03-09T02:18:24;5.75;;;4.00;;
73321;SDS011;61549;37.044;22.128;2023-03-09T02:28:56;5.43;;;3.90;;
73321;SDS011;61549;37.044;22.128;2023-03-09T02:31:29;5.78;;;3.70;;
73321;SDS011;61549;37.044;22.128;2023-03-09T02:33:56;4.32;;;3.45;;
73321;SDS011;61549;37.044;22.128;2023-03-09T02:36:22;6.00;;;3.78;;
73321;SDS011;61549;37.044;22.128;2023-03-09T02:38:49;4.63;;;3.78;;
73321;SDS011;61549;37.044;22.128;2023-03-09T02:43:50;5.90;;;3.80;;
73321;SDS011;61549;37.044;22.128;2023-03-09T02:46:17;4.07;;;3.65;;
73321;SDS011;61549;37.044;22.128;2023-03-09T02:48:43;4.75;;;3.80;;
73321;SDS011;61549;37.044;22.128;2023-03-09T02:51:09;5.55;;;3.92;;
73321;SDS011;61549;37.044;22.128;2023-03-09T02:53:35;6.95;;;4.60;;
73321;SDS011;61549;37.044;22.128;2023-03-09T02:56:01;7.97;;;4.63;;
73321;SDS011;61549;37.044;22.128;2023-03-09T02:58:27;6.85;;;4.47;;
73321;SDS011;61549;37.044;22.128;2023-03-09T03:00:53;7.55;;;4.85;;
73321;SDS011;61549;37.044;22.128;2023-03-09T03:03:19;8.00;;;5.25;;
73321;SDS011;61549;37.044;22.128;2023-03-09T03:05:49;8.60;;;5.90;;
73321;SDS011;61549;37.044;22.128;2023-03-09T03:08:21;7.43;;;5.20;;
73321;SDS011;61549;37.044;22.128;2023-03-09T03:10:49;7.65;;;5.25;;
73321;SDS011;61549;37.044;22.128;2023-03-09T03:13:15;7.60;;;5.13;;
73321;SDS011;61549;37.044;22.128;2023-03-09T03:15:41;7.22;;;5.18;;
73321;SDS011;61549;37.044;22.128;2023-03-09T03:18:08;8.57;;;5.55;;
73321;SDS011;61549;37.044;22.128;2023-03-09T03:20:34;9.13;;;5.35;;
73321;SDS011;61549;37.044;22.128;2023-03-09T03:23:00;8.10;;;5.40;;
73321;SDS011;61549;37.044;22.128;2023-03-09T03:25:25;8.48;;;5.85;;
73321;SDS011;61549;37.044;22.128;2023-03-09T03:27:51;9.65;;;5.38;;
73321;SDS011;61549;37.044;22.128;2023-03-09T03:30:17;6.47;;;5.47;;
73321;SDS011;61549;37.044;22.128;2023-03-09T03:32:43;10.27;;;6.30;;
73321;SDS011;61549;37.044;22.128;2023-03-09T03:35:10;8.00;;;5.75;;
73321;SDS011;61549;37.044;22.128;2023-03-09T03:37:37;7.55;;;4.70;;
73321;SDS011;61549;37.044;22.128;2023-03-09T03:40:03;5.88;;;4.30;;
73321;SDS011;61549;37.044;22.128;2023-03-09T03:42:33;5.03;;;3.25;;
73321;SDS011;61549;37.044;22.128;2023-03-09T03:44:59;4.35;;;2.90;;
73321;SDS011;61549;37.044;22.128;2023-03-09T03:47:24;5.28;;;3.00;;
73321;SDS011;61549;37.044;22.128;2023-03-09T03:49:50;4.32;;;2.78;;
73321;SDS011;61549;37.044;22.128;2023-03-09T03:52:16;4.82;;;3.00;;
73321;SDS011;61549;37.044;22.128;2023-03-09T03:54:42;4.45;;;2.80;;
73321;SDS011;61549;37.044;22.128;2023-03-09T03:59:53;4.13;;;2.92;;
73321;SDS011;61549;37.044;22.128;2023-03-09T04:02:19;5.65;;;2.80;;
73321;SDS011;61549;37.044;22.128;2023-03-09T04:04:45;5.63;;;2.70;;
73321;SDS011;61549;37.044;22.128;2023-03-09T04:07:11;6.32;;;2.90;;
73321;SDS011;61549;37.044;22.128;2023-03-09T04:09:37;3.70;;;2.60;;
73321;SDS011;61549;37.044;22.128;2023-03-09T04:12:03;4.97;;;2.97;;
73321;SDS011;61549;37.044;22.128;2023-03-09T04:14:30;3.75;;;2.90;;
73321;SDS011;61549;37.044;22.128;2023-03-09T04:16:58;4.50;;;2.85;;
73321;SDS011;61549;37.044;22.128;2023-03-09T04:19:24;3.70;;;2.45;;
73321;SDS011;61549;37.044;22.128;2023-03-09T04:21:49;2.90;;;2.60;;
73321;SDS011;61549;37.044;22.128;2023-03-09T04:24:15;3.88;;;2.72;;
73321;SDS011;61549;37.044;22.128;2023-03-09T04:26:41;3.08;;;2.50;;
73321;SDS011;61549;37.044;22.128;2023-03-09T04:29:07;2.88;;;2.35;;
73321;SDS011;61549;37.044;22.128;2023-03-09T04:31:33;5.53;;;2.60;;
73321;SDS011;61549;37.044;22.128;2023-03-09T04:33:58;3.00;;;2.60;;
73321;SDS011;61549;37.044;22.128;2023-03-09T04:36:24;5.10;;;2.67;;
73321;SDS011;61549;37.044;22.128;2023-03-09T04:38:50;5.93;;;3.67;;
73321;SDS011;61549;37.044;22.128;2023-03-09T04:41:16;4.88;;;3.55;;
73321;SDS011;61549;37.044;22.128;2023-03-09T04:43:42;6.78;;;3.20;;
73321;SDS011;61549;37.044;22.128;2023-03-09T04:46:08;4.20;;;2.72;;
73321;SDS011;61549;37.044;22.128;2023-03-09T04:48:33;4.65;;;2.65;;
73321;SDS011;61549;37.044;22.128;2023-03-09T04:50:59;4.22;;;2.70;;
73321;SDS011;61549;37.044;22.128;2023-03-09T04:53:25;5.70;;;2.65;;
73321;SDS011;61549;37.044;22.128;2023-03-09T04:55:51;3.92;;;2.80;;
73321;SDS011;61549;37.044;22.128;2023-03-09T04:58:17;3.40;;;2.60;;
73321;SDS011;61549;37.044;22.128;2023-03-09T05:00:43;4.90;;;2.40;;
73321;SDS011;61549;37.044;22.128;2023-03-09T05:03:08;2.92;;;2.45;;
73321;SDS011;61549;37.044;22.128;2023-03-09T05:05:34;3.53;;;2.60;;
73321;SDS011;61549;37.044;22.128;2023-03-09T05:08:00;3.70;;;2.67;;
73321;SDS011;61549;37.044;22.128;2023-03-09T05:10:26;5.55;;;2.40;;
73321;SDS011;61549;37.044;22.128;2023-03-09T05:12:51;4.22;;;2.55;;
73321;SDS011;61549;37.044;22.128;2023-03-09T05:15:17;3.17;;;2.30;;
73321;SDS011;61549;37.044;22.128;2023-03-09T05:17:43;2.95;;;2.17;;
73321;SDS011;61549;37.044;22.128;2023-03-09T05:20:09;4.10;;;2.50;;
73321;SDS011;61549;37.044;22.128;2023-03-09T05:22:36;3.75;;;2.40;;
73321;SDS011;61549;37.044;22.128;2023-03-09T05:25:03;5.30;;;2.50;;
73321;SDS011;61549;37.044;22.128;2023-03-09T05:27:30;3.83;;;2.60;;
73321;SDS011;61549;37.044;22.128;2023-03-09T05:29:56;5.82;;;2.78;;
73321;SDS011;61549;37.044;22.128;2023-03-09T05:32:22;3.00;;;2.63;;
73321;SDS011;61549;37.044;22.128;2023-03-09T05:34:50;5.35;;;2.97;;
73321;SDS011;61549;37.044;22.128;2023-03-09T05:37:15;6.53;;;3.08;;
73321;SDS011;61549;37.044;22.128;2023-03-09T05:39:41;6.75;;;3.08;;
73321;SDS011;61549;37.044;22.128;2023-03-09T05:42:07;5.80;;;3.30;;
73321;SDS011;61549;37.044;22.128;2023-03-09T05:44:34;7.05;;;3.58;;
73321;SDS011;61549;37.044;22.128;2023-03-09T05:47:00;5.88;;;3.53;;
73321;SDS011;61549;37.044;22.128;2023-03-09T05:49:26;7.00;;;3.40;;
73321;SDS011;61549;37.044;22.128;2023-03-09T05:51:53;6.05;;;3.80;;
73321;SDS011;61549;37.044;22.128;2023-03-09T05:54:19;4.75;;;3.22;;
73321;SDS011;61549;37.044;22.128;2023-03-09T05:56:47;7.80;;;5.43;;
73321;SDS011;61549;37.044;22.128;2023-03-09T05:59:16;9.55;;;6.15;;
73321;SDS011;61549;37.044;22.128;2023-03-09T06:01:42;10.60;;;6.95;;
73321;SDS011;61549;37.044;22.128;2023-03-09T06:04:08;27.00;;;16.63;;
73321;SDS011;61549;37.044;22.128;2023-03-09T06:06:34;21.30;;;14.20;;
73321;SDS011;61549;37.044;22.128;2023-03-09T06:09:00;30.45;;;19.52;;
73321;SDS011;61549;37.044;22.128;2023-03-09T06:11:26;29.00;;;19.63;;
73321;SDS011;61549;37.044;22.128;2023-03-09T06:13:53;42.97;;;28.52;;
73321;SDS011;61549;37.044;22.128;2023-03-09T06:16:20;47.35;;;30.33;;
73321;SDS011;61549;37.044;22.128;2023-03-09T06:18:46;46.65;;;29.70;;
73321;SDS011;61549;37.044;22.128;2023-03-09T06:21:12;41.50;;;27.38;;
73321;SDS011;61549;37.044;22.128;2023-03-09T06:23:39;40.33;;;27.10;;
73321;SDS011;61549;37.044;22.128;2023-03-09T06:26:15;41.60;;;27.65;;
73321;SDS011;61549;37.044;22.128;2023-03-09T06:28:41;40.97;;;27.42;;
73321;SDS011;61549;37.044;22.128;2023-03-09T06:31:09;42.10;;;26.83;;
73321;SDS011;61549;37.044;22.128;2023-03-09T06:33:37;45.65;;;29.48;;
73321;SDS011;61549;37.044;22.128;2023-03-09T06:36:04;47.25;;;29.30;;
73321;SDS011;61549;37.044;22.128;2023-03-09T06:38:30;46.50;;;31.15;;
73321;SDS011;61549;37.044;22.128;2023-03-09T06:40:56;43.55;;;28.92;;
73321;SDS011;61549;37.044;22.128;2023-03-09T06:43:22;45.35;;;29.33;;
73321;SDS011;61549;37.044;22.128;2023-03-09T06:45:48;44.40;;;29.25;;
73321;SDS011;61549;37.044;22.128;2023-03-09T06:48:14;44.03;;;28.23;;
73321;SDS011;61549;37.044;22.128;2023-03-09T06:50:40;40.83;;;27.27;;
73321;SDS011;61549;37.044;22.128;2023-03-09T06:53:06;41.03;;;27.25;;
73321;SDS011;61549;37.044;22.128;2023-03-09T06:55:32;38.50;;;25.50;;
73321;SDS011;61549;37.044;22.128;2023-03-09T06:57:58;36.97;;;24.98;;
73321;SDS011;61549;37.044;22.128;2023-03-09T07:00:24;32.65;;;22.00;;
73321;SDS011;61549;37.044;22.128;2023-03-09T07:02:50;32.92;;;21.88;;
73321;SDS011;61549;37.044;22.128;2023-03-09T07:05:16;33.47;;;21.17;;
73321;SDS011;61549;37.044;22.128;2023-03-09T07:07:42;31.45;;;19.40;;
73321;SDS011;61549;37.044;22.128;2023-03-09T07:10:09;29.30;;;19.15;;
73321;SDS011;61549;37.044;22.128;2023-03-09T07:12:35;33.05;;;22.00;;
73321;SDS011;61549;37.044;22.128;2023-03-09T07:15:01;33.72;;;21.90;;
73321;SDS011;61549;37.044;22.128;2023-03-09T07:17:27;30.80;;;20.73;;
73321;SDS011;61549;37.044;22.128;2023-03-09T07:19:53;35.85;;;23.55;;
73321;SDS011;61549;37.044;22.128;2023-03-09T07:22:19;38.42;;;25.92;;
73321;SDS011;61549;37.044;22.128;2023-03-09T07:24:45;42.25;;;29.00;;
73321;SDS011;61549;37.044;22.128;2023-03-09T07:27:11;38.85;;;27.15;;
73321;SDS011;61549;37.044;22.128;2023-03-09T07:29:37;35.15;;;24.40;;
73321;SDS011;61549;37.044;22.128;2023-03-09T07:32:05;34.97;;;23.80;;
73321;SDS011;61549;37.044;22.128;2023-03-09T07:34:32;30.65;;;21.60;;
73321;SDS011;61549;37.044;22.128;2023-03-09T07:36:58;31.73;;;21.23;;
73321;SDS011;61549;37.044;22.128;2023-03-09T07:39:25;29.23;;;19.55;;
73321;SDS011;61549;37.044;22.128;2023-03-09T07:41:54;30.25;;;20.15;;
73321;SDS011;61549;37.044;22.128;2023-03-09T07:44:20;26.55;;;18.95;;
73321;SDS011;61549;37.044;22.128;2023-03-09T07:46:46;35.67;;;22.48;;
73321;SDS011;61549;37.044;22.128;2023-03-09T07:49:12;33.75;;;21.58;;
73321;SDS011;61549;37.044;22.128;2023-03-09T07:51:38;30.80;;;20.60;;
73321;SDS011;61549;37.044;22.128;2023-03-09T07:54:05;28.83;;;20.08;;
73321;SDS011;61549;37.044;22.128;2023-03-09T07:56:31;27.33;;;18.90;;
73321;SDS011;61549;37.044;22.128;2023-03-09T07:58:57;26.70;;;18.75;;
73321;SDS011;61549;37.044;22.128;2023-03-09T08:01:25;25.95;;;18.25;;
73321;SDS011;61549;37.044;22.128;2023-03-09T08:03:52;29.70;;;20.05;;
73321;SDS011;61549;37.044;22.128;2023-03-09T08:06:18;26.60;;;19.00;;
73321;SDS011;61549;37.044;22.128;2023-03-09T08:08:44;26.48;;;18.83;;
73321;SDS011;61549;37.044;22.128;2023-03-09T08:11:12;24.50;;;17.23;;
73321;SDS011;61549;37.044;22.128;2023-03-09T08:13:38;27.17;;;17.73;;
73321;SDS011;61549;37.044;22.128;2023-03-09T08:16:05;25.20;;;17.52;;
73321;SDS011;61549;37.044;22.128;2023-03-09T08:18:32;27.52;;;18.75;;
73321;SDS011;61549;37.044;22.128;2023-03-09T08:21:11;25.35;;;18.10;;
73321;SDS011;61549;37.044;22.128;2023-03-09T08:23:39;23.67;;;17.17;;
73321;SDS011;61549;37.044;22.128;2023-03-09T08:26:12;19.63;;;14.95;;
73321;SDS011;61549;37.044;22.128;2023-03-09T08:28:40;19.10;;;13.75;;
73321;SDS011;61549;37.044;22.128;2023-03-09T08:31:10;20.75;;;13.73;;
73321;SDS011;61549;37.044;22.128;2023-03-09T08:33:37;21.23;;;13.88;;
73321;SDS011;61549;37.044;22.128;2023-03-09T08:36:13;20.17;;;13.77;;
73321;SDS011;61549;37.044;22.128;2023-03-09T08:38:41;20.42;;;14.43;;
73321;SDS011;61549;37.044;22.128;2023-03-09T08:41:09;20.13;;;13.50;;
73321;SDS011;61549;37.044;22.128;2023-03-09T08:43:34;18.90;;;12.38;;
73321;SDS011;61549;37.044;22.128;2023-03-09T08:46:00;19.55;;;14.23;;
73321;SDS011;61549;37.044;22.128;2023-03-09T08:48:26;18.33;;;12.68;;
73321;SDS011;61549;37.044;22.128;2023-03-09T08:50:52;19.35;;;12.43;;
73321;SDS011;61549;37.044;22.128;2023-03-09T08:53:18;19.48;;;13.95;;
73321;SDS011;61549;37.044;22.128;2023-03-09T08:55:45;22.17;;;14.75;;
73321;SDS011;61549;37.044;22.128;2023-03-09T08:58:11;16.73;;;12.13;;
73321;SDS011;61549;37.044;22.128;2023-03-09T09:00:37;20.52;;;13.40;;
73321;SDS011;61549;37.044;22.128;2023-03-09T09:03:03;17.45;;;11.75;;
73321;SDS011;61549;37.044;22.128;2023-03-09T09:05:31;16.88;;;12.18;;
73321;SDS011;61549;37.044;22.128;2023-03-09T09:07:57;14.25;;;10.73;;
73321;SDS011;61549;37.044;22.128;2023-03-09T09:10:22;12.43;;;10.13;;
73321;SDS011;61549;37.044;22.128;2023-03-09T09:12:49;14.10;;;9.75;;
73321;SDS011;61549;37.044;22.128;2023-03-09T09:15:14;14.18;;;10.15;;
73321;SDS011;61549;37.044;22.128;2023-03-09T09:17:42;12.18;;;9.13;;
73321;SDS011;61549;37.044;22.128;2023-03-09T09:20:08;13.60;;;10.07;;
73321;SDS011;61549;37.044;22.128;2023-03-09T09:22:34;13.23;;;9.15;;
73321;SDS011;61549;37.044;22.128;2023-03-09T09:25:00;10.65;;;7.88;;
73321;SDS011;61549;37.044;22.128;2023-03-09T09:27:26;9.95;;;7.28;;
73321;SDS011;61549;37.044;22.128;2023-03-09T09:29:55;9.23;;;7.03;;
73321;SDS011;61549;37.044;22.128;2023-03-09T09:34:50;7.93;;;5.50;;
73321;SDS011;61549;37.044;22.128;2023-03-09T09:37:16;8.50;;;5.45;;
73321;SDS011;61549;37.044;22.128;2023-03-09T09:39:43;9.93;;;5.95;;
73321;SDS011;61549;37.044;22.128;2023-03-09T09:42:21;8.48;;;5.60;;
73321;SDS011;61549;37.044;22.128;2023-03-09T09:44:52;9.43;;;6.55;;
73321;SDS011;61549;37.044;22.128;2023-03-09T09:49:55;8.93;;;6.10;;
73321;SDS011;61549;37.044;22.128;2023-03-09T09:57:36;10.65;;;6.88;;
73321;SDS011;61549;37.044;22.128;2023-03-09T10:02:56;8.95;;;6.18;;
73321;SDS011;61549;37.044;22.128;2023-03-09T10:05:44;9.07;;;6.25;;
73321;SDS011;61549;37.044;22.128;2023-03-09T10:08:19;6.90;;;5.68;;
73321;SDS011;61549;37.044;22.128;2023-03-09T10:11:06;8.82;;;5.30;;
73321;SDS011;61549;37.044;22.128;2023-03-09T10:13:45;7.57;;;5.30;;
73321;SDS011;61549;37.044;22.128;2023-03-09T10:16:15;7.25;;;5.13;;
73321;SDS011;61549;37.044;22.128;2023-03-09T10:18:50;6.83;;;4.63;;
73321;SDS011;61549;37.044;22.128;2023-03-09T10:21:39;6.70;;;4.68;;
73321;SDS011;61549;37.044;22.128;2023-03-09T10:24:40;8.27;;;4.88;;
73321;SDS011;61549;37.044;22.128;2023-03-09T10:27:11;8.50;;;4.32;;
73321;SDS011;61549;37.044;22.128;2023-03-09T10:35:08;10.30;;;4.10;;
73321;SDS011;61549;37.044;22.128;2023-03-09T10:37:40;5.25;;;4.03;;
73321;SDS011;61549;37.044;22.128;2023-03-09T10:40:07;7.07;;;3.63;;
73321;SDS011;61549;37.044;22.128;2023-03-09T10:42:42;5.50;;;4.32;;
73321;SDS011;61549;37.044;22.128;2023-03-09T10:50:20;5.18;;;3.85;;
73321;SDS011;61549;37.044;22.128;2023-03-09T10:52:48;5.38;;;3.65;;
73321;SDS011;61549;37.044;22.128;2023-03-09T10:55:25;5.93;;;4.90;;
73321;SDS011;61549;37.044;22.128;2023-03-09T10:58:00;6.13;;;3.60;;
73321;SDS011;61549;37.044;22.128;2023-03-09T11:00:54;5.68;;;3.80;;
73321;SDS011;61549;37.044;22.128;2023-03-09T11:03:35;4.28;;;3.50;;
73321;SDS011;61549;37.044;22.128;2023-03-09T11:06:09;5.10;;;4.07;;
73321;SDS011;61549;37.044;22.128;2023-03-09T11:11:44;4.38;;;3.60;;
73321;SDS011;61549;37.044;22.128;2023-03-09T11:14:25;4.80;;;3.55;;
73321;SDS011;61549;37.044;22.128;2023-03-09T11:16:56;4.00;;;3.30;;
73321;SDS011;61549;37.044;22.128;2023-03-09T11:19:24;5.32;;;3.40;;
73321;SDS011;61549;37.044;22.128;2023-03-09T11:24:23;4.93;;;3.50;;
73321;SDS011;61549;37.044;22.128;2023-03-09T11:27:02;5.15;;;3.50;;
73321;SDS011;61549;37.044;22.128;2023-03-09T11:29:41;4.28;;;3.47;;
73321;SDS011;61549;37.044;22.128;2023-03-09T11:32:16;5.93;;;3.33;;
73321;SDS011;61549;37.044;22.128;2023-03-09T11:34:42;4.25;;;3.20;;
73321;SDS011;61549;37.044;22.128;2023-03-09T11:42:51;4.53;;;3.40;;
73321;SDS011;61549;37.044;22.128;2023-03-09T11:45:23;4.20;;;3.30;;
73321;SDS011;61549;37.044;22.128;2023-03-09T11:48:04;5.15;;;3.45;;
73321;SDS011;61549;37.044;22.128;2023-03-09T11:50:40;6.25;;;3.63;;
73321;SDS011;61549;37.044;22.128;2023-03-09T11:55:48;4.35;;;3.50;;
73321;SDS011;61549;37.044;22.128;2023-03-09T11:58:26;4.95;;;3.85;;
73321;SDS011;61549;37.044;22.128;2023-03-09T12:04:04;5.80;;;3.72;;
73321;SDS011;61549;37.044;22.128;2023-03-09T12:06:41;6.07;;;3.90;;
73321;SDS011;61549;37.044;22.128;2023-03-09T12:09:10;5.55;;;4.10;;
73321;SDS011;61549;37.044;22.128;2023-03-09T12:11:51;5.47;;;4.30;;
73321;SDS011;61549;37.044;22.128;2023-03-09T12:14:38;5.70;;;4.38;;
73321;SDS011;61549;37.044;22.128;2023-03-09T12:17:14;6.72;;;4.38;;
73321;SDS011;61549;37.044;22.128;2023-03-09T12:22:15;6.30;;;4.60;;
73321;SDS011;61549;37.044;22.128;2023-03-09T12:24:51;7.50;;;4.68;;
73321;SDS011;61549;37.044;22.128;2023-03-09T12:27:32;7.32;;;4.70;;
73321;SDS011;61549;37.044;22.128;2023-03-09T12:30:26;5.88;;;4.43;;
73321;SDS011;61549;37.044;22.128;2023-03-09T12:32:59;5.97;;;4.68;;
73321;SDS011;61549;37.044;22.128;2023-03-09T12:40:40;7.25;;;5.13;;
73321;SDS011;61549;37.044;22.128;2023-03-09T12:45:39;7.40;;;5.25;;
73321;SDS011;61549;37.044;22.128;2023-03-09T13:00:58;8.13;;;5.68;;
73321;SDS011;61549;37.044;22.128;2023-03-09T13:11:41;8.48;;;5.63;;
73321;SDS011;61549;37.044;22.128;2023-03-09T13:16:38;8.63;;;5.78;;
73321;SDS011;61549;37.044;22.128;2023-03-09T13:29:39;8.35;;;5.15;;
73321;SDS011;61549;37.044;22.128;2023-03-09T13:32:31;6.90;;;4.70;;
73321;SDS011;61549;37.044;22.128;2023-03-09T13:37:54;7.53;;;5.35;;
73321;SDS011;61549;37.044;22.128;2023-03-09T13:40:26;7.88;;;4.03;;
73321;SDS011;61549;37.044;22.128;2023-03-09T13:42:52;9.18;;;5.35;;
73321;SDS011;61549;37.044;22.128;2023-03-09T13:45:23;9.00;;;5.90;;
73321;SDS011;61549;37.044;22.128;2023-03-09T13:47:52;4.70;;;4.10;;
73321;SDS011;61549;37.044;22.128;2023-03-09T13:50:21;6.07;;;4.38;;
73321;SDS011;61549;37.044;22.128;2023-03-09T13:55:28;6.13;;;3.75;;
73321;SDS011;61549;37.044;22.128;2023-03-09T13:58:16;6.13;;;3.55;;
73321;SDS011;61549;37.044;22.128;2023-03-09T14:00:56;4.75;;;3.72;;
73321;SDS011;61549;37.044;22.128;2023-03-09T14:03:27;9.55;;;5.03;;
73321;SDS011;61549;37.044;22.128;2023-03-09T14:08:20;13.07;;;8.45;;
73321;SDS011;61549;37.044;22.128;2023-03-09T14:10:47;17.88;;;8.80;;
73321;SDS011;61549;37.044;22.128;2023-03-09T14:13:15;14.63;;;5.78;;
73321;SDS011;61549;37.044;22.128;2023-03-09T14:15:49;11.80;;;5.50;;
73321;SDS011;61549;37.044;22.128;2023-03-09T14:18:37;22.50;;;12.02;;
73321;SDS011;61549;37.044;22.128;2023-03-09T14:21:23;23.00;;;12.25;;
73321;SDS011;61549;37.044;22.128;2023-03-09T14:23:51;12.15;;;6.75;;
73321;SDS011;61549;37.044;22.128;2023-03-09T14:26:25;14.27;;;8.00;;
73321;SDS011;61549;37.044;22.128;2023-03-09T14:31:41;18.00;;;10.15;;
73321;SDS011;61549;37.044;22.128;2023-03-09T14:39:33;41.20;;;23.20;;
73321;SDS011;61549;37.044;22.128;2023-03-09T14:47:24;35.20;;;17.33;;
73321;SDS011;61549;37.044;22.128;2023-03-09T14:49:51;8.35;;;3.80;;
73321;SDS011;61549;37.044;22.128;2023-03-09T14:52:18;5.40;;;3.08;;
73321;SDS011;61549;37.044;22.128;2023-03-09T14:54:46;4.80;;;3.15;;
73321;SDS011;61549;37.044;22.128;2023-03-09T14:57:14;5.30;;;3.30;;
73321;SDS011;61549;37.044;22.128;2023-03-09T14:59:41;6.80;;;3.75;;
73321;SDS011;61549;37.044;22.128;2023-03-09T15:02:08;6.15;;;3.50;;
73321;SDS011;61549;37.044;22.128;2023-03-09T15:04:36;6.90;;;3.88;;
73321;SDS011;61549;37.044;22.128;2023-03-09T15:07:06;4.88;;;3.72;;
73321;SDS011;61549;37.044;22.128;2023-03-09T15:09:33;7.57;;;4.47;;
73321;SDS011;61549;37.044;22.128;2023-03-09T15:12:01;8.50;;;4.40;;
73321;SDS011;61549;37.044;22.128;2023-03-09T15:14:33;7.05;;;3.58;;
73321;SDS011;61549;37.044;22.128;2023-03-09T15:17:02;5.82;;;3.65;;
73321;SDS011;61549;37.044;22.128;2023-03-09T15:19:29;6.15;;;3.20;;
73321;SDS011;61549;37.044;22.128;2023-03-09T15:21:56;7.40;;;4.03;;
73321;SDS011;61549;37.044;22.128;2023-03-09T15:24:26;9.35;;;4.60;;
73321;SDS011;61549;37.044;22.128;2023-03-09T15:26:54;7.40;;;4.43;;
73321;SDS011;61549;37.044;22.128;2023-03-09T15:29:22;29.58;;;16.83;;
73321;SDS011;61549;37.044;22.128;2023-03-09T15:31:49;8.45;;;5.25;;
73321;SDS011;61549;37.044;22.128;2023-03-09T15:34:14;15.30;;;7.57;;
73321;SDS011;61549;37.044;22.128;2023-03-09T15:36:41;6.38;;;4.45;;
73321;SDS011;61549;37.044;22.128;2023-03-09T15:39:06;5.30;;;3.88;;
73321;SDS011;61549;37.044;22.128;2023-03-09T15:41:33;7.95;;;4.20;;
73321;SDS011;61549;37.044;22.128;2023-03-09T15:43:58;7.35;;;4.20;;
73321;SDS011;61549;37.044;22.128;2023-03-09T15:46:24;5.20;;;3.60;;
73321;SDS011;61549;37.044;22.128;2023-03-09T15:48:50;5.20;;;3.58;;
73321;SDS011;61549;37.044;22.128;2023-03-09T15:51:17;5.95;;;4.18;;
73321;SDS011;61549;37.044;22.128;2023-03-09T15:53:44;19.65;;;9.57;;
73321;SDS011;61549;37.044;22.128;2023-03-09T15:56:11;13.90;;;7.78;;
73321;SDS011;61549;37.044;22.128;2023-03-09T15:58:38;10.57;;;7.22;;
73321;SDS011;61549;37.044;22.128;2023-03-09T16:01:05;14.85;;;10.25;;
73321;SDS011;61549;37.044;22.128;2023-03-09T16:03:33;10.25;;;6.78;;
73321;SDS011;61549;37.044;22.128;2023-03-09T16:05:59;10.95;;;7.68;;
73321;SDS011;61549;37.044;22.128;2023-03-09T16:08:26;16.80;;;10.85;;
73321;SDS011;61549;37.044;22.128;2023-03-09T16:10:54;15.82;;;9.23;;
73321;SDS011;61549;37.044;22.128;2023-03-09T16:13:21;16.52;;;8.23;;
73321;SDS011;61549;37.044;22.128;2023-03-09T16:15:47;9.90;;;6.60;;
73321;SDS011;61549;37.044;22.128;2023-03-09T16:18:15;11.35;;;6.65;;
73321;SDS011;61549;37.044;22.128;2023-03-09T16:20:42;11.02;;;6.95;;
73321;SDS011;61549;37.044;22.128;2023-03-09T16:23:08;11.43;;;7.00;;
73321;SDS011;61549;37.044;22.128;2023-03-09T16:25:35;16.60;;;8.80;;
73321;SDS011;61549;37.044;22.128;2023-03-09T16:28:01;12.90;;;7.50;;
73321;SDS011;61549;37.044;22.128;2023-03-09T16:30:27;12.48;;;7.30;;
73321;SDS011;61549;37.044;22.128;2023-03-09T16:32:54;10.60;;;6.97;;
73321;SDS011;61549;37.044;22.128;2023-03-09T16:35:20;11.15;;;7.22;;
73321;SDS011;61549;37.044;22.128;2023-03-09T16:37:48;15.07;;;7.50;;
73321;SDS011;61549;37.044;22.128;2023-03-09T16:40:15;16.92;;;10.82;;
73321;SDS011;61549;37.044;22.128;2023-03-09T16:42:42;13.43;;;8.65;;